Time;durP1;ratioP1;P1;durP2;ratioP2;P2;SDS_P1;SDS_P2;PMS_P1;PMS_P2;Temp;Humidity;BMP_temperature;BMP_pressure;BME280_temperature;BME280_humidity;BME280_pressure;Samples;Min_cycle;Max_cycle;Signal;HPM_P1;HPM_P2
2022/09/19 00:01:58;;;;;;;7.95;2.72;;;;;;;8.51;100.00;99775.63;5003382;28;20088;-78
2022/09/19 00:04:32;;;;;;;3.42;2.85;;;;;;;8.55;100.00;99777.34;5003769;28;20502;-78
2022/09/19 00:06:58;;;;;;;3.85;2.78;;;;;;;8.59;100.00;99775.56;5001723;28;20485;-78
2022/09/19 00:09:27;;;;;;;4.68;2.75;;;;;;;8.64;100.00;99776.38;5003525;28;20100;-78
2022/09/19 00:11:53;;;;;;;4.68;3.13;;;;;;;8.69;100.00;99778.06;4999275;28;20061;-78
2022/09/19 00:14:23;;;;;;;5.38;2.85;;;;;;;8.67;100.00;99773.72;5001891;28;20042;-78
2022/09/19 00:16:48;;;;;;;5.45;2.90;;;;;;;8.69;100.00;99778.06;5001477;28;20042;-78
2022/09/19 00:19:17;;;;;;;4.90;2.75;;;;;;;8.82;100.00;99772.69;5004950;28;20092;-78
2022/09/19 00:21:45;;;;;;;4.93;3.38;;;;;;;8.77;100.00;99781.47;5007718;28;20069;-78
2022/09/19 00:26:58;;;;;;;4.07;3.20;;;;;;;8.68;100.00;99778.09;5003295;28;20515;-78
2022/09/19 00:29:24;;;;;;;2.97;2.70;;;;;;;8.71;100.00;99792.09;5002873;28;20038;-79
2022/09/19 00:31:51;;;;;;;4.43;2.83;;;;;;;8.71;100.00;99780.69;5001469;28;20038;-78
2022/09/19 00:34:17;;;;;;;4.07;3.03;;;;;;;8.75;100.00;99785.91;5005412;28;20052;-79
2022/09/19 00:36:43;;;;;;;3.80;3.40;;;;;;;8.72;100.00;99785.94;5004005;28;20038;-78
2022/09/19 00:39:11;;;;;;;3.70;3.40;;;;;;;8.73;100.00;99790.31;5003031;28;20041;-79
2022/09/19 00:41:37;;;;;;;4.07;3.05;;;;;;;8.75;100.00;99788.53;5002208;28;20121;-78
2022/09/19 00:44:21;;;;;;;5.18;3.42;;;;;;;8.80;100.00;99784.97;5005583;28;20076;-78
2022/09/19 00:46:49;;;;;;;4.35;3.45;;;;;;;8.77;100.00;99791.13;5006031;28;20034;-78
2022/09/19 00:49:18;;;;;;;3.83;3.40;;;;;;;8.76;100.00;99794.66;5012928;28;20026;-79
2022/09/19 00:51:49;;;;;;;4.55;3.53;;;;;;;8.75;100.00;99793.81;5012490;28;20508;-78
2022/09/19 00:54:28;;;;;;;7.30;3.88;;;;;;;8.73;100.00;99786.81;5004348;28;20611;-78
2022/09/19 00:56:55;;;;;;;4.10;3.45;;;;;;;8.76;100.00;99790.28;5011820;28;20074;-78
2022/09/19 00:59:24;;;;;;;5.03;3.20;;;;;;;8.73;100.00;99800.84;5007436;28;20042;-78
2022/09/19 01:01:53;;;;;;;6.80;4.10;;;;;;;8.74;100.00;99802.56;5004845;28;20508;-78
2022/09/19 01:04:21;;;;;;;4.47;3.78;;;;;;;8.81;100.00;99807.78;5006570;28;20046;-77
2022/09/19 01:07:13;;;;;;;5.05;3.63;;;;;;;8.78;100.00;99813.97;5008601;28;20054;-78
2022/09/19 01:10:20;;;;;;;5.07;3.88;;;;;;;8.77;100.00;99813.06;5001430;28;20132;-78
2022/09/19 01:13:09;;;;;;;4.95;3.97;;;;;;;8.80;100.00;99811.28;5011368;28;20037;-78
2022/09/19 01:16:00;;;;;;;4.05;3.55;;;;;;;8.81;100.00;99813.06;5005228;28;20034;-78
2022/09/19 01:18:35;;;;;;;5.63;4.65;;;;;;;8.83;100.00;99827.03;5005411;28;20049;-78
2022/09/19 01:24:19;;;;;;;5.07;4.20;;;;;;;8.90;100.00;99829.59;5008853;28;20080;-78
2022/09/19 01:27:06;;;;;;;6.85;4.07;;;;;;;8.92;100.00;99838.34;5023309;28;20041;-78
2022/09/19 01:29:39;;;;;;;5.22;4.05;;;;;;;8.95;100.00;99826.91;5006983;28;20041;-78
2022/09/19 01:32:09;;;;;;;6.70;4.25;;;;;;;9.04;100.00;99834.72;5004887;28;20169;-78
2022/09/19 01:34:41;;;;;;;7.80;4.50;;;;;;;8.99;100.00;99839.16;5005982;28;20085;-78
2022/09/19 01:37:12;;;;;;;5.90;4.38;;;;;;;8.99;100.00;99834.78;5008148;28;20032;-78
2022/09/19 01:39:45;;;;;;;4.53;4.13;;;;;;;9.02;100.00;99833.88;5004538;28;20448;-78
2022/09/19 01:42:12;;;;;;;5.10;4.35;;;;;;;8.98;100.00;99842.66;5004982;28;20044;-78
2022/09/19 01:44:38;;;;;;;5.13;4.22;;;;;;;9.04;100.00;99842.63;5007398;28;20121;-78
2022/09/19 01:47:27;;;;;;;4.45;4.05;;;;;;;9.08;100.00;99846.94;5004443;28;20031;-77
2022/09/19 01:50:13;;;;;;;7.45;4.65;;;;;;;9.05;100.00;99854.88;4982724;28;20493;-78
2022/09/19 01:52:56;;;;;;;5.85;4.63;;;;;;;9.06;100.00;99855.75;5005832;28;20035;-78
2022/09/19 01:55:45;;;;;;;4.90;4.50;;;;;;;9.07;100.00;99860.16;5006440;28;20041;-78
2022/09/19 01:58:40;;;;;;;7.63;4.70;;;;;;;9.03;100.00;99859.28;5002333;28;20053;-78
2022/09/19 02:01:35;;;;;;;8.15;5.00;;;;;;;9.11;100.00;99864.47;5015047;28;20036;-78
2022/09/19 02:04:20;;;;;;;7.40;5.53;;;;;;;9.12;100.00;99860.97;5020125;28;20049;-78
2022/09/19 02:06:48;;;;;;;6.90;4.47;;;;;;;9.15;100.00;99864.44;5008765;28;20034;-78
2022/09/19 02:10:05;;;;;;;5.32;4.53;;;;;;;9.15;100.00;99866.19;5003527;28;20034;-78
2022/09/19 02:12:38;;;;;;;5.13;4.63;;;;;;;9.18;100.00;99869.66;5012945;28;20128;-79
2022/09/19 02:15:17;;;;;;;5.57;4.47;;;;;;;9.19;100.00;99874.03;5019154;28;20465;-78
2022/09/19 02:17:50;;;;;;;9.73;4.85;;;;;;;9.12;100.00;99880.25;5008845;28;20031;-79
2022/09/19 02:20:26;;;;;;;6.80;4.85;;;;;;;9.12;100.00;99875.00;5005178;28;20389;-78
2022/09/19 02:22:57;;;;;;;7.18;4.38;;;;;;;9.12;100.00;99880.25;5011524;28;20042;-79
2022/09/19 02:25:30;;;;;;;7.28;4.47;;;;;;;9.02;100.00;99875.13;5010678;28;20527;-79
2022/09/19 02:28:03;;;;;;;7.70;4.95;;;;;;;8.97;100.00;99877.78;5003799;28;20513;-79
2022/09/19 02:30:29;;;;;;;6.95;4.20;;;;;;;8.93;100.00;99891.84;5010224;28;20033;-78
2022/09/19 02:32:57;;;;;;;7.18;5.35;;;;;;;8.84;100.00;99882.28;5011826;28;20061;-79
2022/09/19 02:35:39;;;;;;;7.40;5.13;;;;;;;8.78;100.00;99893.75;4998056;28;20034;-78
2022/09/19 02:38:29;;;;;;;7.85;5.15;;;;;;;8.82;100.00;99896.34;5021373;28;20101;-79
2022/09/19 02:41:08;;;;;;;5.00;4.50;;;;;;;8.81;100.00;99887.59;5017946;28;20073;-78
2022/09/19 02:43:46;;;;;;;10.90;4.68;;;;;;;8.85;100.00;99897.19;5007969;28;20038;-78
2022/09/19 02:46:30;;;;;;;11.57;5.18;;;;;;;8.90;100.00;99899.78;5004434;28;20034;-79
2022/09/19 02:49:10;;;;;;;7.22;5.03;;;;;;;8.92;100.00;99900.66;5005234;28;20057;-78
2022/09/19 02:51:46;;;;;;;8.05;5.10;;;;;;;8.96;100.00;99907.59;5029795;28;20409;-79
2022/09/19 02:54:18;;;;;;;8.25;5.05;;;;;;;8.92;100.00;99903.28;5007235;28;20125;-79
2022/09/19 02:56:48;;;;;;;8.65;4.95;;;;;;;8.95;100.00;99913.78;5019664;28;20088;-78
2022/09/19 02:59:25;;;;;;;7.60;4.82;;;;;;;8.95;100.00;99912.00;5005253;28;20492;-79
2022/09/19 03:02:00;;;;;;;7.30;4.95;;;;;;;8.93;100.00;99923.44;5003360;28;20404;-79
2022/09/19 03:04:31;;;;;;;5.80;5.20;;;;;;;8.98;100.00;99924.25;5004758;28;20384;-78
2022/09/19 03:07:13;;;;;;;8.98;5.50;;;;;;;8.99;100.00;99926.03;5018680;28;20058;-79
2022/09/19 03:09:52;;;;;;;5.18;4.63;;;;;;;9.06;100.00;99925.06;5015029;28;20103;-79
2022/09/19 03:12:26;;;;;;;7.25;5.45;;;;;;;9.03;100.00;99940.03;5016623;28;20041;-79
2022/09/19 03:14:55;;;;;;;6.05;4.28;;;;;;;9.03;100.00;99942.66;5004078;28;20093;-79
2022/09/19 03:17:27;;;;;;;8.95;5.20;;;;;;;9.07;100.00;99939.13;5002558;28;20038;-79
2022/09/19 03:19:52;;;;;;;8.23;5.15;;;;;;;9.11;100.00;99938.19;5005468;28;20038;-79
2022/09/19 03:22:18;;;;;;;11.57;5.53;;;;;;;9.09;100.00;99946.13;5024450;28;20523;-79
2022/09/19 03:24:43;;;;;;;7.90;5.10;;;;;;;9.14;100.00;99941.69;5004383;28;20532;-78
2022/09/19 03:27:09;;;;;;;8.65;5.80;;;;;;;9.16;100.00;99939.00;5005145;28;20028;-78
2022/09/19 03:29:36;;;;;;;6.40;5.10;;;;;;;9.18;100.00;99953.03;5001917;28;20058;-78
2022/09/19 03:32:03;;;;;;;11.82;5.45;;;;;;;9.18;100.00;99956.53;5004750;28;20116;-78
2022/09/19 03:34:32;;;;;;;9.30;4.85;;;;;;;9.24;100.00;99954.72;5000091;28;20026;-78
2022/09/19 03:36:59;;;;;;;9.90;5.13;;;;;;;9.23;100.00;99958.28;5005432;28;20496;-78
2022/09/19 03:39:27;;;;;;;8.82;4.55;;;;;;;9.15;100.00;99964.47;5001738;28;20080;-78
2022/09/19 03:41:54;;;;;;;4.82;4.43;;;;;;;9.14;100.00;99965.38;5006009;28;20034;-78
2022/09/19 03:44:20;;;;;;;7.47;4.72;;;;;;;9.14;100.00;99961.84;5004530;28;20057;-78
2022/09/19 03:46:46;;;;;;;8.98;4.93;;;;;;;9.13;100.00;99963.59;5000302;28;20065;-79
2022/09/19 03:49:13;;;;;;;6.43;4.93;;;;;;;9.20;100.00;99965.31;5016789;28;20044;-79
2022/09/19 03:51:38;;;;;;;7.82;4.20;;;;;;;9.30;100.00;99970.47;5011384;28;20499;-79
2022/09/19 03:54:06;;;;;;;6.18;4.50;;;;;;;9.20;100.00;99970.56;5011906;28;20030;-79
2022/09/19 03:56:37;;;;;;;10.25;5.07;;;;;;;9.19;100.00;99973.19;5020490;28;20060;-79
2022/09/19 03:59:06;;;;;;;9.52;4.68;;;;;;;9.17;100.00;99975.88;5009128;28;20037;-80
2022/09/19 04:01:32;;;;;;;10.30;4.60;;;;;;;9.21;100.00;99980.19;5018619;28;20063;-80
2022/09/19 04:03:59;;;;;;;7.78;5.22;;;;;;;9.25;100.00;99978.44;5012493;28;20583;-80
2022/09/19 04:06:24;;;;;;;8.30;4.60;;;;;;;9.31;100.00;99983.63;5022193;28;20105;-80
2022/09/19 04:08:49;;;;;;;8.90;5.05;;;;;;;9.35;100.00;99976.56;5011244;28;20109;-80
2022/09/19 04:11:15;;;;;;;7.18;4.80;;;;;;;9.36;100.00;99976.56;5019950;28;20030;-79
2022/09/19 04:13:40;;;;;;;6.13;5.07;;;;;;;9.44;100.00;99979.13;5012117;28;20099;-80
2022/09/19 04:16:14;;;;;;;10.27;5.28;;;;;;;9.48;100.00;99975.53;5020019;28;20113;-79
2022/09/19 04:18:41;;;;;;;8.98;4.88;;;;;;;9.53;100.00;99981.63;5024493;28;20064;-80
2022/09/19 04:21:09;;;;;;;5.13;4.63;;;;;;;9.56;100.00;99986.91;5018120;28;20088;-78
2022/09/19 04:23:44;;;;;;;7.53;4.57;;;;;;;9.57;100.00;99985.13;5020473;28;20036;-77
2022/09/19 04:26:25;;;;;;;10.25;4.43;;;;;;;9.56;100.00;99988.63;5020317;28;20038;-79
2022/09/19 04:28:51;;;;;;;8.70;4.95;;;;;;;9.58;100.00;99987.72;5017049;28;20029;-78
2022/09/19 04:31:17;;;;;;;7.78;4.93;;;;;;;9.60;100.00;99993.84;5011517;28;20492;-78
2022/09/19 04:33:46;;;;;;;5.72;5.13;;;;;;;9.61;100.00;99998.22;5011102;28;20034;-78
2022/09/19 04:36:12;;;;;;;13.52;5.55;;;;;;;9.68;100.00;100006.94;5022477;28;20574;-77
2022/09/19 04:38:38;;;;;;;12.63;5.57;;;;;;;9.61;100.00;100007.91;5002977;28;20060;-77
2022/09/19 04:41:12;;;;;;;15.45;5.63;;;;;;;9.63;100.00;100003.50;4999721;28;20038;-77
2022/09/19 04:43:38;;;;;;;5.93;4.75;;;;;;;9.63;100.00;100011.41;5004282;28;20152;-77
2022/09/19 04:46:12;;;;;;;10.70;5.65;;;;;;;9.69;100.00;100008.69;5007953;28;20023;-78
2022/09/19 04:48:45;;;;;;;7.22;4.70;;;;;;;9.60;100.00;100012.31;5017785;28;20084;-77
2022/09/19 04:51:11;;;;;;;12.15;6.30;;;;;;;9.56;100.00;100010.59;5009740;28;20095;-78
2022/09/19 04:53:38;;;;;;;8.50;5.55;;;;;;;9.55;100.00;100014.09;5021638;28;20495;-78
2022/09/19 04:56:04;;;;;;;7.43;5.50;;;;;;;9.58;100.00;100014.06;5019881;28;20040;-76
2022/09/19 04:58:32;;;;;;;9.38;5.85;;;;;;;9.59;100.00;100014.97;5021037;28;20057;-78
2022/09/19 05:00:58;;;;;;;8.02;5.90;;;;;;;9.53;100.00;100023.78;5009053;28;20041;-77
2022/09/19 05:03:25;;;;;;;8.98;5.20;;;;;;;9.55;100.00;100024.66;5014829;28;20030;-77
2022/09/19 05:05:52;;;;;;;6.25;5.15;;;;;;;9.52;100.00;100023.81;5015689;28;20038;-77
2022/09/19 05:08:26;;;;;;;7.88;5.95;;;;;;;9.54;100.00;100025.56;5022432;28;20065;-77
2022/09/19 05:10:54;;;;;;;11.65;5.25;;;;;;;9.54;100.00;100028.19;5011757;28;20447;-77
2022/09/19 05:13:23;;;;;;;8.23;5.40;;;;;;;9.59;100.00;100030.78;5015580;28;20026;-78
2022/09/19 05:15:50;;;;;;;9.70;7.00;;;;;;;9.51;100.00;100030.84;5011765;28;20038;-78
2022/09/19 05:18:17;;;;;;;9.88;5.97;;;;;;;9.56;100.00;100031.69;5017670;28;20030;-78
2022/09/19 05:20:42;;;;;;;10.05;5.35;;;;;;;9.63;100.00;100038.63;5015329;28;20033;-78
2022/09/19 05:23:08;;;;;;;8.50;6.15;;;;;;;9.60;100.00;100043.91;5014223;28;20033;-78
2022/09/19 05:25:40;;;;;;;9.05;6.28;;;;;;;9.63;100.00;100035.97;5008763;28;20030;-78
2022/09/19 05:28:07;;;;;;;10.38;6.47;;;;;;;9.68;100.00;100040.34;5023175;28;20038;-78
2022/09/19 05:30:55;;;;;;;8.75;5.60;;;;;;;9.73;100.00;100049.06;5011851;28;20109;-78
2022/09/19 05:33:26;;;;;;;10.65;6.25;;;;;;;9.71;100.00;100046.44;5007044;28;20034;-78
2022/09/19 05:35:53;;;;;;;7.35;6.35;;;;;;;9.70;100.00;100043.84;5009151;28;20030;-78
2022/09/19 05:38:36;;;;;;;8.82;6.50;;;;;;;9.82;100.00;100052.50;5027983;28;20044;-78
2022/09/19 05:41:16;;;;;;;7.47;6.53;;;;;;;9.84;100.00;100057.72;5018953;28;20076;-78
2022/09/19 05:43:55;;;;;;;10.35;7.10;;;;;;;9.82;100.00;100054.22;5009235;28;20065;-78
2022/09/19 05:46:20;;;;;;;11.95;6.88;;;;;;;9.84;100.00;100063.88;5009003;28;20030;-78
2022/09/19 05:48:48;;;;;;;9.40;6.47;;;;;;;9.85;100.00;100065.63;5023481;28;20519;-78
2022/09/19 05:51:13;;;;;;;10.27;6.85;;;;;;;9.85;100.00;100064.72;5009814;28;20026;-78
2022/09/19 05:53:56;;;;;;;12.15;8.13;;;;;;;9.80;100.00;100063.94;5017471;28;20039;-77
2022/09/19 05:56:49;;;;;;;9.90;7.70;;;;;;;9.73;100.00;100065.75;5011782;28;20065;-77
2022/09/19 05:59:15;;;;;;;8.37;7.50;;;;;;;9.74;100.00;100071.88;5000366;28;20576;-77
2022/09/19 06:01:42;;;;;;;9.88;7.20;;;;;;;9.76;100.00;100075.38;5007611;28;20285;-76
2022/09/19 06:04:18;;;;;;;9.23;6.90;;;;;;;9.76;100.00;100081.53;5010635;28;20493;-77
2022/09/19 06:06:44;;;;;;;10.15;7.20;;;;;;;9.75;100.00;100084.19;5013025;28;20057;-76
2022/09/19 06:09:10;;;;;;;9.82;7.30;;;;;;;9.70;100.00;100091.28;5017118;28;20400;-76
2022/09/19 06:11:40;;;;;;;14.90;6.95;;;;;;;9.69;100.00;100085.09;5017011;28;20499;-76
2022/09/19 06:26:30;;;;;;;10.48;7.38;;;;;;;9.82;100.00;100096.41;4826690;29;20040;-76
2022/09/19 06:28:56;;;;;;;11.95;8.07;;;;;;;9.82;100.00;100099.03;4924607;29;20051;-76
2022/09/19 06:31:22;;;;;;;12.32;8.20;;;;;;;9.87;100.00;100099.88;4932135;28;20067;-77
2022/09/19 06:33:54;;;;;;;14.38;9.73;;;;;;;9.92;100.00;100107.72;4962037;28;20043;-76
2022/09/19 06:36:23;;;;;;;11.45;7.55;;;;;;;9.96;100.00;100110.34;4974245;28;20051;-76
2022/09/19 06:38:50;;;;;;;10.10;8.40;;;;;;;10.04;100.00;100113.75;4972589;28;20031;-76
2022/09/19 06:41:39;;;;;;;10.38;8.15;;;;;;;10.09;100.00;100103.16;4967161;28;20034;-77
2022/09/19 06:44:14;;;;;;;11.65;9.95;;;;;;;10.16;100.00;100114.50;4974079;28;20102;-76
2022/09/19 06:46:59;;;;;;;13.00;9.02;;;;;;;10.18;100.00;100120.63;4958609;28;20097;-76
2022/09/19 06:49:30;;;;;;;14.70;8.18;;;;;;;10.27;100.00;100115.25;4973423;28;20549;-77
2022/09/19 06:52:14;;;;;;;12.80;7.45;;;;;;;10.40;100.00;100116.00;4964734;28;20035;-76
2022/09/19 06:54:39;;;;;;;8.30;7.13;;;;;;;10.39;100.00;100125.69;4961069;28;20042;-76
2022/09/19 06:57:05;;;;;;;11.80;7.53;;;;;;;10.54;100.00;100135.19;4958278;28;20493;-76
2022/09/19 06:59:30;;;;;;;12.10;7.93;;;;;;;10.55;100.00;100130.78;4962448;28;20039;-76
2022/09/19 07:01:55;;;;;;;7.80;5.78;;;;;;;10.52;100.00;100136.97;4964367;28;20047;-76
2022/09/19 07:04:22;;;;;;;7.15;6.45;;;;;;;10.63;100.00;100150.03;4962695;28;20118;-76
2022/09/19 07:07:06;;;;;;;7.00;5.93;;;;;;;10.63;100.00;100155.31;4955534;28;20042;-76
2022/09/19 07:09:35;;;;;;;9.98;5.82;;;;;;;10.70;100.00;100149.06;4977203;28;20425;-76
2022/09/19 07:12:01;;;;;;;8.02;5.95;;;;;;;10.79;100.00;100146.31;4968374;28;20047;-76
2022/09/19 07:14:26;;;;;;;6.68;5.78;;;;;;;10.77;100.00;100148.13;4970834;28;20046;-76
2022/09/19 07:16:52;;;;;;;9.45;5.80;;;;;;;10.83;100.00;100153.31;4960893;28;20031;-76
2022/09/19 07:19:17;;;;;;;11.40;7.30;;;;;;;10.82;100.00;100162.13;4973155;28;20035;-76
2022/09/19 07:22:00;;;;;;;6.50;5.63;;;;;;;10.95;100.00;100174.25;4959789;28;20039;-76
2022/09/19 07:24:46;;;;;;;9.60;8.80;;;;;;;10.83;100.00;100179.69;4949081;28;20041;-76
2022/09/19 07:27:42;;;;;;;7.47;5.97;;;;;;;10.95;100.00;100179.53;4949228;28;20070;-76
2022/09/19 07:30:08;;;;;;;5.95;5.45;;;;;;;11.13;100.00;100180.16;4967647;28;20114;-76
2022/09/19 07:32:34;;;;;;;5.80;5.30;;;;;;;11.11;100.00;100185.50;4964096;28;20062;-76
2022/09/19 07:34:59;;;;;;;7.07;5.57;;;;;;;10.90;100.00;100183.16;4963981;28;20121;-76
2022/09/19 07:37:24;;;;;;;9.23;5.55;;;;;;;10.63;100.00;100192.25;4968509;28;20045;-76
2022/09/19 07:39:59;;;;;;;7.22;4.88;;;;;;;10.44;100.00;100197.75;4956696;28;20460;-76
2022/09/19 07:42:34;;;;;;;5.75;5.00;;;;;;;10.31;100.00;100204.91;4960650;28;20102;-76
2022/09/19 07:45:17;;;;;;;5.88;5.35;;;;;;;10.27;100.00;100204.91;4957876;28;20042;-76
2022/09/19 07:47:57;;;;;;;5.40;4.90;;;;;;;10.39;100.00;100210.13;4936666;28;20050;-76
2022/09/19 07:50:35;;;;;;;8.35;5.55;;;;;;;10.37;100.00;100216.28;4956774;28;20035;-76
2022/09/19 07:53:17;;;;;;;6.15;5.22;;;;;;;10.45;100.00;100212.72;4958582;28;20079;-76
2022/09/19 07:55:48;;;;;;;6.13;5.50;;;;;;;10.46;100.00;100235.56;4964613;28;20533;-76
2022/09/19 07:58:13;;;;;;;7.88;6.10;;;;;;;10.62;100.00;100238.03;4954002;28;20035;-76
2022/09/19 08:00:45;;;;;;;5.32;4.80;;;;;;;10.70;100.00;100228.25;4956874;28;20058;-76
2022/09/19 08:03:19;;;;;;;5.90;5.32;;;;;;;10.70;100.00;100252.00;4954975;28;20429;-76
2022/09/19 08:05:47;;;;;;;7.18;5.50;;;;;;;10.77;100.00;100240.50;4972814;28;20023;-76
2022/09/19 08:08:15;;;;;;;8.98;6.00;;;;;;;10.82;100.00;100241.31;4963719;28;20042;-76
2022/09/19 08:10:43;;;;;;;6.10;5.47;;;;;;;10.95;100.00;100240.28;4963632;28;20505;-76
2022/09/19 08:13:11;;;;;;;6.07;5.47;;;;;;;11.11;100.00;100248.00;4969544;28;20046;-76
2022/09/19 08:15:37;;;;;;;6.47;4.93;;;;;;;11.11;100.00;100243.59;4971085;28;20577;-76
2022/09/19 08:18:07;;;;;;;5.10;4.60;;;;;;;11.05;100.00;100254.22;4961539;28;20035;-76
2022/09/19 08:20:36;;;;;;;6.10;5.18;;;;;;;11.07;100.00;100252.44;4968547;28;20046;-76
2022/09/19 08:23:06;;;;;;;5.05;4.55;;;;;;;11.01;100.00;100251.66;4972599;28;20042;-76
2022/09/19 08:25:35;;;;;;;6.07;4.50;;;;;;;10.86;100.00;100261.50;4926725;28;20072;-77
2022/09/19 08:28:04;;;;;;;6.22;4.85;;;;;;;10.88;100.00;100267.63;4975102;28;20031;-76
2022/09/19 08:30:31;;;;;;;6.03;5.07;;;;;;;10.96;100.00;100265.78;4976377;28;20090;-76
2022/09/19 08:32:59;;;;;;;6.82;6.07;;;;;;;11.08;100.00;100263.88;4961768;28;20041;-76
2022/09/19 08:35:24;;;;;;;5.78;4.90;;;;;;;11.21;100.00;100281.31;4979121;28;20031;-76
2022/09/19 08:38:00;;;;;;;5.90;5.18;;;;;;;11.32;100.00;100278.56;4967372;28;20035;-76
2022/09/19 08:40:31;;;;;;;5.90;5.30;;;;;;;11.33;100.00;100275.88;4974758;28;20480;-76
2022/09/19 08:43:34;;;;;;;5.47;4.97;;;;;;;11.39;100.00;100285.47;4976501;28;20046;-76
2022/09/19 08:46:09;;;;;;;6.68;5.63;;;;;;;11.48;100.00;100298.59;4949493;28;20054;-76
2022/09/19 08:48:58;;;;;;;7.60;5.57;;;;;;;11.39;100.00;100291.63;4976278;28;20043;-76
2022/09/19 08:51:37;;;;;;;5.65;5.13;;;;;;;11.36;100.00;100306.66;4980154;28;20181;-76
2022/09/19 08:54:17;;;;;;;6.13;5.45;;;;;;;11.34;100.00;100296.13;4974524;28;20141;-76
2022/09/19 08:56:43;;;;;;;6.45;5.75;;;;;;;11.45;100.00;100284.53;4978651;28;20035;-76
2022/09/19 08:59:20;;;;;;;7.68;6.78;;;;;;;11.49;100.00;100302.09;4964093;28;20405;-76
2022/09/19 09:01:58;;;;;;;;;;;;;;;11.49;100.00;100304.75;4980715;28;20062;-76
2022/09/19 09:04:40;;;;;;;6.32;5.68;;;;;;;11.51;100.00;100300.31;4960177;28;19914;-76
2022/09/19 09:07:27;;;;;;;7.50;6.28;;;;;;;11.65;100.00;100303.63;4963832;28;20069;-76
2022/09/19 09:10:44;;;;;;;7.03;6.32;;;;;;;11.69;100.00;100305.34;4963994;28;20071;-76
2022/09/19 09:13:28;;;;;;;8.05;6.55;;;;;;;11.75;100.00;100304.38;4979802;28;20119;-76
2022/09/19 09:16:11;;;;;;;9.05;5.90;;;;;;;11.80;100.00;100307.84;4976300;28;20037;-76
2022/09/19 09:19:02;;;;;;;7.00;6.30;;;;;;;11.94;100.00;100315.59;4975542;28;20425;-76
2022/09/19 09:21:51;;;;;;;7.10;6.40;;;;;;;12.01;100.00;100306.66;4964531;28;20062;-76
2022/09/19 09:24:30;;;;;;;6.70;6.03;;;;;;;12.21;100.00;100312.50;4960710;28;20035;-76
2022/09/19 09:27:30;;;;;;;7.13;6.43;;;;;;;12.26;100.00;100317.72;4970896;28;20517;-76
2022/09/19 09:30:12;;;;;;;7.25;6.60;;;;;;;12.34;99.69;100326.41;4968183;28;20035;-76
2022/09/19 09:32:46;;;;;;;7.18;6.28;;;;;;;12.54;99.59;100323.41;4969206;28;20039;-76
2022/09/19 09:35:30;;;;;;;7.15;5.93;;;;;;;12.48;98.07;100326.19;4963883;28;20498;-77
2022/09/19 09:38:30;;;;;;;10.27;6.18;;;;;;;12.52;97.76;100325.22;4958432;28;20498;-76
2022/09/19 09:44:06;;;;;;;5.57;4.85;;;;;;;12.41;97.89;100333.34;4973499;28;20077;-77
2022/09/19 09:46:58;;;;;;;6.20;5.63;;;;;;;12.32;97.99;100337.94;4976960;28;20502;-77
2022/09/19 09:49:30;;;;;;;7.00;5.65;;;;;;;12.17;99.73;100345.19;4929265;28;20043;-77
2022/09/19 09:52:17;;;;;;;7.47;6.40;;;;;;;12.11;100.00;100355.88;4969821;28;20027;-77
2022/09/19 09:57:41;;;;;;;6.78;6.05;;;;;;;12.30;97.97;100343.22;4967085;28;20039;-77
2022/09/19 10:03:34;;;;;;;8.50;6.28;;;;;;;12.44;98.16;100335.06;4967796;28;20031;-77
2022/09/19 10:06:59;;;;;;;7.68;6.93;;;;;;;12.67;97.57;100330.22;4983362;28;20053;-79
2022/09/19 10:09:33;;;;;;;8.10;7.30;;;;;;;13.00;95.27;100338.47;4869129;29;20059;-78
2022/09/19 10:12:14;;;;;;;7.57;6.88;;;;;;;13.23;94.64;100335.38;4862213;29;20142;-78
2022/09/19 10:14:41;;;;;;;8.07;7.32;;;;;;;13.31;90.31;100341.44;4944427;28;20051;-78
2022/09/19 10:17:37;;;;;;;9.35;7.10;;;;;;;13.35;92.22;100342.22;4982228;28;20679;-79
2022/09/19 10:20:15;;;;;;;7.53;6.82;;;;;;;13.34;90.61;100336.06;4972369;28;20027;-78
2022/09/19 10:22:41;;;;;;;9.75;7.38;;;;;;;13.53;92.52;100331.22;4937107;28;20034;-77
2022/09/19 10:25:10;;;;;;;11.20;7.28;;;;;;;13.59;90.03;100339.03;4962899;28;20031;-77
2022/09/19 10:27:39;;;;;;;8.07;6.95;;;;;;;13.66;89.43;100344.25;4962025;28;20047;-77
2022/09/19 10:30:41;;;;;;;7.47;6.70;;;;;;;13.55;89.50;100342.69;4971896;28;20043;-77
2022/09/19 10:33:44;;;;;;;8.40;7.68;;;;;;;13.57;88.29;100346.19;4968640;28;20055;-78
2022/09/19 10:36:20;;;;;;;7.82;7.05;;;;;;;13.57;90.62;100345.28;4968390;28;20457;-77
2022/09/19 10:38:58;;;;;;;7.22;6.53;;;;;;;13.73;89.10;100351.16;4979304;28;20066;-77
2022/09/19 10:41:28;;;;;;;7.35;6.72;;;;;;;13.89;86.52;100351.69;4944621;28;20031;-77
2022/09/19 10:44:00;;;;;;;7.85;7.00;;;;;;;13.85;85.13;100356.16;4965106;28;20031;-77
2022/09/19 10:46:35;;;;;;;6.95;6.43;;;;;;;13.80;85.88;100347.44;4973166;28;20059;-77
2022/09/19 10:49:24;;;;;;;7.38;6.68;;;;;;;13.77;86.78;100347.53;4969176;28;20046;-77
2022/09/19 10:51:51;;;;;;;6.70;5.80;;;;;;;13.76;88.30;100353.75;4981230;28;20039;-78
2022/09/19 10:54:31;;;;;;;7.32;6.68;;;;;;;13.83;87.90;100357.97;4964602;28;20031;-78
2022/09/19 10:57:01;;;;;;;7.22;6.60;;;;;;;14.11;85.38;100355.56;4968826;28;20031;-78
2022/09/19 10:59:39;;;;;;;7.88;6.10;;;;;;;14.02;84.38;100356.69;4963850;28;20042;-78
2022/09/19 11:02:19;;;;;;;8.40;6.57;;;;;;;13.96;85.18;100355.94;4973687;28;20119;-78
2022/09/19 11:05:00;;;;;;;6.75;6.15;;;;;;;13.81;85.62;100365.13;4961380;28;20040;-78
2022/09/19 11:07:30;;;;;;;8.75;7.72;;;;;;;13.85;85.96;100356.16;4987324;28;20035;-78
2022/09/19 11:10:04;;;;;;;8.90;8.13;;;;;;;14.11;85.37;100362.66;4977417;28;20046;-78
2022/09/19 11:12:30;;;;;;;;;;;;;;;14.07;85.49;100356.56;4944357;28;20651;-78
2022/09/19 11:14:58;;;;;;;9.68;8.85;;;;;;;14.27;83.99;100356.09;4977222;28;19914;-78
2022/09/19 11:17:29;;;;;;;7.25;6.55;;;;;;;14.31;83.42;100364.88;4984411;28;20031;-78
2022/09/19 11:20:23;;;;;;;7.57;6.47;;;;;;;14.20;82.37;100363.34;4973548;28;20030;-78
2022/09/19 11:23:31;;;;;;;6.35;5.85;;;;;;;14.33;79.66;100371.00;4972116;28;20039;-78
2022/09/19 11:26:10;;;;;;;6.93;6.43;;;;;;;14.24;77.87;100365.00;4991939;28;20043;-78
2022/09/19 11:28:52;;;;;;;6.93;6.32;;;;;;;14.08;79.57;100371.56;4941113;28;20043;-78
2022/09/19 11:31:37;;;;;;;;;;;;;;;14.33;80.70;100365.69;4970569;28;20038;-78
2022/09/19 11:34:18;;;;;;;6.65;6.15;;;;;;;14.98;79.88;100370.25;4958228;28;19914;-78
2022/09/19 11:36:52;;;;;;;8.90;8.10;;;;;;;15.34;76.08;100360.41;4993127;28;20031;-78
2022/09/19 11:39:33;;;;;;;9.32;8.45;;;;;;;15.96;73.16;100356.81;4986804;28;20180;-78
2022/09/19 11:42:12;;;;;;;6.20;5.70;;;;;;;15.92;71.40;100361.34;4977047;28;20066;-78
2022/09/19 11:45:15;;;;;;;7.03;6.32;;;;;;;15.87;73.11;100355.31;4988960;28;20170;-78
2022/09/19 11:48:10;;;;;;;6.22;5.72;;;;;;;15.88;70.57;100340.22;4954737;28;20035;-78
2022/09/19 11:51:03;;;;;;;6.77;6.27;;;;;;;15.92;70.68;100348.03;4991627;28;20042;-78
2022/09/19 11:54:02;;;;;;;7.55;5.80;;;;;;;15.82;71.13;100345.72;4988077;28;20804;-78
2022/09/19 11:56:53;;;;;;;6.78;6.28;;;;;;;16.05;72.22;100348.53;4991065;28;20081;-78
2022/09/19 11:59:46;;;;;;;6.50;6.00;;;;;;;16.28;71.27;100352.28;4984250;28;20049;-79
2022/09/19 12:02:41;;;;;;;7.85;7.15;;;;;;;16.67;69.98;100343.88;4985504;28;20553;-78
2022/09/19 12:05:35;;;;;;;5.65;5.15;;;;;;;16.34;70.24;100338.75;4971068;28;20038;-78
2022/09/19 12:08:15;;;;;;;8.25;7.50;;;;;;;16.49;68.77;100348.88;4971270;28;20035;-78
2022/09/19 12:10:55;;;;;;;6.95;5.97;;;;;;;16.51;68.22;100348.84;4986755;28;20061;-78
2022/09/19 12:13:33;;;;;;;5.78;5.25;;;;;;;16.77;68.46;100332.88;4973917;28;20038;-78
2022/09/19 12:16:10;;;;;;;6.95;6.45;;;;;;;16.44;68.48;100351.69;4973853;28;20063;-78
2022/09/19 12:18:49;;;;;;;8.07;7.55;;;;;;;16.50;67.11;100333.78;4971143;28;20043;-79
2022/09/19 12:21:22;;;;;;;7.40;6.80;;;;;;;16.85;67.10;100329.94;4970694;28;20074;-79
2022/09/19 12:27:21;;;;;;;7.65;7.15;;;;;;;16.76;61.70;100347.06;4987639;28;20126;-79
2022/09/19 12:30:11;;;;;;;7.30;6.80;;;;;;;17.17;62.07;100334.09;4975327;28;20529;-79
2022/09/19 12:32:47;;;;;;;7.18;6.60;;;;;;;17.51;61.62;100352.41;4987042;28;20453;-79
2022/09/19 12:35:21;;;;;;;7.45;6.68;;;;;;;17.38;62.81;100345.78;4983782;28;20037;-79